sensor_id;sensor_type;location;lat;lon;timestamp;P1;durP1;ratioP1;P2;durP2;ratioP2
52031;SDS011;38044;45.148;39.604;2023-03-14T00:02:00;41.80;;;22.45;;
52031;SDS011;38044;45.148;39.604;2023-03-14T00:04:26;41.60;;;23.92;;
52031;SDS011;38044;45.148;39.604;2023-03-14T00:06:51;38.67;;;22.88;;
52031;SDS011;38044;45.148;39.604;2023-03-14T00:09:17;37.38;;;21.05;;
52031;SDS011;38044;45.148;39.604;2023-03-14T00:11:43;38.95;;;22.60;;
52031;SDS011;38044;45.148;39.604;2023-03-14T00:14:09;38.13;;;21.67;;
52031;SDS011;38044;45.148;39.604;2023-03-14T00:16:34;37.30;;;21.65;;
52031;SDS011;38044;45.148;39.604;2023-03-14T00:19:00;36.08;;;20.33;;
52031;SDS011;38044;45.148;39.604;2023-03-14T00:21:26;36.22;;;20.80;;
52031;SDS011;38044;45.148;39.604;2023-03-14T00:23:52;33.65;;;19.23;;
52031;SDS011;38044;45.148;39.604;2023-03-14T00:26:19;35.00;;;20.48;;
52031;SDS011;38044;45.148;39.604;2023-03-14T00:28:46;35.22;;;19.75;;
52031;SDS011;38044;45.148;39.604;2023-03-14T00:31:14;30.73;;;19.27;;
52031;SDS011;38044;45.148;39.604;2023-03-14T00:33:41;30.42;;;18.17;;
52031;SDS011;38044;45.148;39.604;2023-03-14T00:36:09;30.85;;;17.60;;
52031;SDS011;38044;45.148;39.604;2023-03-14T00:38:37;29.75;;;17.60;;
52031;SDS011;38044;45.148;39.604;2023-03-14T00:41:04;31.60;;;17.42;;
52031;SDS011;38044;45.148;39.604;2023-03-14T00:43:32;29.50;;;17.27;;
52031;SDS011;38044;45.148;39.604;2023-03-14T00:45:58;26.38;;;13.90;;
52031;SDS011;38044;45.148;39.604;2023-03-14T00:48:24;28.83;;;17.33;;
52031;SDS011;38044;45.148;39.604;2023-03-14T00:50:49;27.13;;;16.42;;
52031;SDS011;38044;45.148;39.604;2023-03-14T00:53:15;26.30;;;14.77;;
52031;SDS011;38044;45.148;39.604;2023-03-14T00:55:42;24.10;;;13.82;;
52031;SDS011;38044;45.148;39.604;2023-03-14T00:58:09;24.10;;;14.23;;
52031;SDS011;38044;45.148;39.604;2023-03-14T01:00:39;20.80;;;13.30;;
52031;SDS011;38044;45.148;39.604;2023-03-14T01:03:05;19.45;;;12.25;;
52031;SDS011;38044;45.148;39.604;2023-03-14T01:05:31;19.75;;;12.18;;
52031;SDS011;38044;45.148;39.604;2023-03-14T01:07:58;21.45;;;13.45;;
52031;SDS011;38044;45.148;39.604;2023-03-14T01:10:24;19.05;;;11.95;;
52031;SDS011;38044;45.148;39.604;2023-03-14T01:12:50;20.52;;;13.25;;
52031;SDS011;38044;45.148;39.604;2023-03-14T01:15:16;18.45;;;12.25;;
52031;SDS011;38044;45.148;39.604;2023-03-14T01:17:42;19.92;;;12.82;;
52031;SDS011;38044;45.148;39.604;2023-03-14T01:20:09;18.30;;;11.93;;
52031;SDS011;38044;45.148;39.604;2023-03-14T01:22:37;18.92;;;12.13;;
52031;SDS011;38044;45.148;39.604;2023-03-14T01:25:08;19.25;;;12.32;;
52031;SDS011;38044;45.148;39.604;2023-03-14T01:30:03;17.75;;;12.02;;
52031;SDS011;38044;45.148;39.604;2023-03-14T01:32:30;17.95;;;11.50;;
52031;SDS011;38044;45.148;39.604;2023-03-14T01:34:56;19.58;;;12.15;;
52031;SDS011;38044;45.148;39.604;2023-03-14T01:37:22;16.20;;;11.18;;
52031;SDS011;38044;45.148;39.604;2023-03-14T01:39:47;17.17;;;11.13;;
52031;SDS011;38044;45.148;39.604;2023-03-14T01:42:14;15.93;;;11.10;;
52031;SDS011;38044;45.148;39.604;2023-03-14T01:44:54;16.05;;;10.40;;
52031;SDS011;38044;45.148;39.604;2023-03-14T01:47:21;15.43;;;10.38;;
52031;SDS011;38044;45.148;39.604;2023-03-14T01:49:52;14.43;;;10.40;;
52031;SDS011;38044;45.148;39.604;2023-03-14T01:52:33;15.95;;;10.38;;
52031;SDS011;38044;45.148;39.604;2023-03-14T01:55:12;13.20;;;9.05;;
52031;SDS011;38044;45.148;39.604;2023-03-14T01:57:41;14.30;;;9.18;;
52031;SDS011;38044;45.148;39.604;2023-03-14T02:00:16;12.68;;;8.60;;
52031;SDS011;38044;45.148;39.604;2023-03-14T02:02:47;13.43;;;8.55;;
52031;SDS011;38044;45.148;39.604;2023-03-14T02:05:16;11.77;;;8.38;;
52031;SDS011;38044;45.148;39.604;2023-03-14T02:07:55;12.05;;;7.28;;
52031;SDS011;38044;45.148;39.604;2023-03-14T02:10:22;11.13;;;7.53;;
52031;SDS011;38044;45.148;39.604;2023-03-14T02:12:52;10.93;;;7.93;;
52031;SDS011;38044;45.148;39.604;2023-03-14T02:15:20;10.10;;;7.22;;
52031;SDS011;38044;45.148;39.604;2023-03-14T02:17:46;10.75;;;7.15;;
52031;SDS011;38044;45.148;39.604;2023-03-14T02:20:15;13.55;;;7.65;;
52031;SDS011;38044;45.148;39.604;2023-03-14T02:22:50;12.00;;;8.02;;
52031;SDS011;38044;45.148;39.604;2023-03-14T02:25:26;12.32;;;7.75;;
52031;SDS011;38044;45.148;39.604;2023-03-14T02:28:03;12.43;;;8.20;;
52031;SDS011;38044;45.148;39.604;2023-03-14T02:30:30;13.13;;;7.68;;
52031;SDS011;38044;45.148;39.604;2023-03-14T02:32:58;12.52;;;8.48;;
52031;SDS011;38044;45.148;39.604;2023-03-14T02:35:29;11.35;;;7.80;;
52031;SDS011;38044;45.148;39.604;2023-03-14T02:40:52;12.02;;;8.10;;
52031;SDS011;38044;45.148;39.604;2023-03-14T02:43:17;10.85;;;6.45;;
52031;SDS011;38044;45.148;39.604;2023-03-14T02:45:44;10.65;;;7.45;;
52031;SDS011;38044;45.148;39.604;2023-03-14T02:48:19;11.55;;;8.02;;
52031;SDS011;38044;45.148;39.604;2023-03-14T02:50:48;12.63;;;7.65;;
52031;SDS011;38044;45.148;39.604;2023-03-14T02:53:17;9.18;;;7.05;;
52031;SDS011;38044;45.148;39.604;2023-03-14T02:55:45;10.88;;;7.60;;
52031;SDS011;38044;45.148;39.604;2023-03-14T02:58:12;11.30;;;7.45;;
52031;SDS011;38044;45.148;39.604;2023-03-14T03:00:38;12.60;;;8.77;;
52031;SDS011;38044;45.148;39.604;2023-03-14T03:03:04;12.73;;;8.32;;
52031;SDS011;38044;45.148;39.604;2023-03-14T03:05:31;10.95;;;7.53;;
52031;SDS011;38044;45.148;39.604;2023-03-14T03:07:57;11.48;;;7.70;;
52031;SDS011;38044;45.148;39.604;2023-03-14T03:10:23;11.68;;;8.15;;
52031;SDS011;38044;45.148;39.604;2023-03-14T03:12:49;12.23;;;8.15;;
52031;SDS011;38044;45.148;39.604;2023-03-14T03:15:16;15.35;;;8.65;;
52031;SDS011;38044;45.148;39.604;2023-03-14T03:17:42;13.13;;;8.57;;
52031;SDS011;38044;45.148;39.604;2023-03-14T03:20:08;15.20;;;9.43;;
52031;SDS011;38044;45.148;39.604;2023-03-14T03:22:35;16.23;;;9.65;;
52031;SDS011;38044;45.148;39.604;2023-03-14T03:25:04;16.42;;;10.35;;
52031;SDS011;38044;45.148;39.604;2023-03-14T03:27:32;17.65;;;10.35;;
52031;SDS011;38044;45.148;39.604;2023-03-14T03:29:59;15.80;;;10.43;;
52031;SDS011;38044;45.148;39.604;2023-03-14T03:32:25;19.83;;;11.02;;
52031;SDS011;38044;45.148;39.604;2023-03-14T03:34:51;16.73;;;9.60;;
52031;SDS011;38044;45.148;39.604;2023-03-14T03:37:17;16.42;;;10.40;;
52031;SDS011;38044;45.148;39.604;2023-03-14T03:39:43;16.35;;;9.93;;
52031;SDS011;38044;45.148;39.604;2023-03-14T03:42:09;15.25;;;9.63;;
52031;SDS011;38044;45.148;39.604;2023-03-14T03:44:36;16.73;;;10.07;;
52031;SDS011;38044;45.148;39.604;2023-03-14T03:47:02;16.70;;;10.52;;
52031;SDS011;38044;45.148;39.604;2023-03-14T03:49:28;15.23;;;9.90;;
52031;SDS011;38044;45.148;39.604;2023-03-14T03:51:57;15.32;;;9.30;;
52031;SDS011;38044;45.148;39.604;2023-03-14T03:54:24;14.45;;;9.48;;
52031;SDS011;38044;45.148;39.604;2023-03-14T03:56:50;14.52;;;10.00;;
52031;SDS011;38044;45.148;39.604;2023-03-14T03:59:16;15.50;;;9.48;;
52031;SDS011;38044;45.148;39.604;2023-03-14T04:01:42;15.23;;;8.30;;
52031;SDS011;38044;45.148;39.604;2023-03-14T04:04:08;13.15;;;8.40;;
52031;SDS011;38044;45.148;39.604;2023-03-14T04:06:34;12.45;;;8.65;;
52031;SDS011;38044;45.148;39.604;2023-03-14T04:09:00;12.80;;;8.35;;
52031;SDS011;38044;45.148;39.604;2023-03-14T04:11:26;12.98;;;7.85;;
52031;SDS011;38044;45.148;39.604;2023-03-14T04:13:52;12.20;;;7.65;;
52031;SDS011;38044;45.148;39.604;2023-03-14T04:16:19;11.27;;;7.30;;
52031;SDS011;38044;45.148;39.604;2023-03-14T04:18:47;16.30;;;7.40;;
52031;SDS011;38044;45.148;39.604;2023-03-14T04:21:13;11.68;;;6.97;;
52031;SDS011;38044;45.148;39.604;2023-03-14T04:23:39;9.90;;;6.63;;
52031;SDS011;38044;45.148;39.604;2023-03-14T04:26:05;9.20;;;5.95;;
52031;SDS011;38044;45.148;39.604;2023-03-14T04:28:31;10.43;;;6.55;;
52031;SDS011;38044;45.148;39.604;2023-03-14T04:30:57;8.50;;;5.80;;
52031;SDS011;38044;45.148;39.604;2023-03-14T04:33:23;8.27;;;5.35;;
52031;SDS011;38044;45.148;39.604;2023-03-14T04:35:52;8.15;;;5.50;;
52031;SDS011;38044;45.148;39.604;2023-03-14T04:38:19;9.30;;;5.88;;
52031;SDS011;38044;45.148;39.604;2023-03-14T04:40:45;9.45;;;5.65;;
52031;SDS011;38044;45.148;39.604;2023-03-14T04:43:11;8.95;;;5.25;;
52031;SDS011;38044;45.148;39.604;2023-03-14T04:45:37;8.65;;;5.18;;
52031;SDS011;38044;45.148;39.604;2023-03-14T04:48:06;7.68;;;5.13;;
52031;SDS011;38044;45.148;39.604;2023-03-14T04:50:34;6.50;;;4.47;;
52031;SDS011;38044;45.148;39.604;2023-03-14T04:53:00;6.80;;;5.05;;
52031;SDS011;38044;45.148;39.604;2023-03-14T04:55:25;7.65;;;4.10;;
52031;SDS011;38044;45.148;39.604;2023-03-14T04:57:51;6.90;;;4.75;;
52031;SDS011;38044;45.148;39.604;2023-03-14T05:00:17;6.32;;;4.35;;
52031;SDS011;38044;45.148;39.604;2023-03-14T05:02:43;8.18;;;4.20;;
52031;SDS011;38044;45.148;39.604;2023-03-14T05:05:10;6.88;;;4.03;;
52031;SDS011;38044;45.148;39.604;2023-03-14T05:07:36;6.35;;;4.45;;
52031;SDS011;38044;45.148;39.604;2023-03-14T05:10:02;8.68;;;4.63;;
52031;SDS011;38044;45.148;39.604;2023-03-14T05:12:28;7.13;;;4.30;;
52031;SDS011;38044;45.148;39.604;2023-03-14T05:14:54;6.50;;;4.57;;
52031;SDS011;38044;45.148;39.604;2023-03-14T05:17:20;6.47;;;4.25;;
52031;SDS011;38044;45.148;39.604;2023-03-14T05:19:45;7.45;;;4.72;;
52031;SDS011;38044;45.148;39.604;2023-03-14T05:22:12;5.47;;;4.30;;
52031;SDS011;38044;45.148;39.604;2023-03-14T05:24:38;6.43;;;4.28;;
52031;SDS011;38044;45.148;39.604;2023-03-14T05:27:04;8.13;;;3.90;;
52031;SDS011;38044;45.148;39.604;2023-03-14T05:29:30;5.68;;;4.00;;
52031;SDS011;38044;45.148;39.604;2023-03-14T05:31:56;5.63;;;3.65;;
52031;SDS011;38044;45.148;39.604;2023-03-14T05:34:21;5.50;;;3.63;;
52031;SDS011;38044;45.148;39.604;2023-03-14T05:36:47;5.25;;;3.60;;
52031;SDS011;38044;45.148;39.604;2023-03-14T05:39:13;5.22;;;3.38;;
52031;SDS011;38044;45.148;39.604;2023-03-14T05:41:39;4.75;;;2.88;;
52031;SDS011;38044;45.148;39.604;2023-03-14T05:44:05;5.15;;;3.60;;
52031;SDS011;38044;45.148;39.604;2023-03-14T05:46:30;5.85;;;3.92;;
52031;SDS011;38044;45.148;39.604;2023-03-14T05:48:57;5.32;;;3.60;;
52031;SDS011;38044;45.148;39.604;2023-03-14T05:51:23;6.10;;;2.53;;
52031;SDS011;38044;45.148;39.604;2023-03-14T05:53:49;4.38;;;2.83;;
52031;SDS011;38044;45.148;39.604;2023-03-14T05:56:15;4.95;;;2.97;;
52031;SDS011;38044;45.148;39.604;2023-03-14T05:58:41;5.35;;;2.67;;
52031;SDS011;38044;45.148;39.604;2023-03-14T06:01:08;4.50;;;2.72;;
52031;SDS011;38044;45.148;39.604;2023-03-14T06:03:34;3.85;;;2.83;;
52031;SDS011;38044;45.148;39.604;2023-03-14T06:06:01;4.68;;;2.58;;
52031;SDS011;38044;45.148;39.604;2023-03-14T06:08:28;4.05;;;2.25;;
52031;SDS011;38044;45.148;39.604;2023-03-14T06:10:54;4.30;;;3.28;;
52031;SDS011;38044;45.148;39.604;2023-03-14T06:13:21;3.70;;;2.10;;
52031;SDS011;38044;45.148;39.604;2023-03-14T06:15:47;3.38;;;2.20;;
52031;SDS011;38044;45.148;39.604;2023-03-14T06:18:13;4.20;;;2.88;;
52031;SDS011;38044;45.148;39.604;2023-03-14T06:20:39;3.83;;;2.60;;
52031;SDS011;38044;45.148;39.604;2023-03-14T06:23:05;7.32;;;3.08;;
52031;SDS011;38044;45.148;39.604;2023-03-14T06:25:32;3.95;;;2.42;;
52031;SDS011;38044;45.148;39.604;2023-03-14T06:27:59;3.55;;;2.83;;
52031;SDS011;38044;45.148;39.604;2023-03-14T06:30:25;6.55;;;2.60;;
52031;SDS011;38044;45.148;39.604;2023-03-14T06:32:51;4.50;;;2.55;;
52031;SDS011;38044;45.148;39.604;2023-03-14T06:35:16;4.32;;;2.67;;
52031;SDS011;38044;45.148;39.604;2023-03-14T06:37:42;3.42;;;1.95;;
52031;SDS011;38044;45.148;39.604;2023-03-14T06:40:09;7.00;;;3.15;;
52031;SDS011;38044;45.148;39.604;2023-03-14T06:42:35;3.05;;;2.58;;
52031;SDS011;38044;45.148;39.604;2023-03-14T06:45:01;5.43;;;2.72;;
52031;SDS011;38044;45.148;39.604;2023-03-14T06:47:28;5.55;;;2.75;;
52031;SDS011;38044;45.148;39.604;2023-03-14T06:49:54;2.83;;;2.30;;
52031;SDS011;38044;45.148;39.604;2023-03-14T06:52:19;5.38;;;3.47;;
52031;SDS011;38044;45.148;39.604;2023-03-14T06:54:45;5.15;;;3.20;;
52031;SDS011;38044;45.148;39.604;2023-03-14T06:57:11;3.03;;;2.08;;
52031;SDS011;38044;45.148;39.604;2023-03-14T06:59:37;6.53;;;2.92;;
52031;SDS011;38044;45.148;39.604;2023-03-14T07:02:02;4.07;;;2.63;;
52031;SDS011;38044;45.148;39.604;2023-03-14T07:04:28;4.07;;;3.22;;
52031;SDS011;38044;45.148;39.604;2023-03-14T07:06:54;5.00;;;3.70;;
52031;SDS011;38044;45.148;39.604;2023-03-14T07:09:20;4.63;;;2.65;;
52031;SDS011;38044;45.148;39.604;2023-03-14T07:11:45;4.38;;;1.98;;
52031;SDS011;38044;45.148;39.604;2023-03-14T07:14:11;4.38;;;2.25;;
52031;SDS011;38044;45.148;39.604;2023-03-14T07:16:37;6.32;;;2.58;;
52031;SDS011;38044;45.148;39.604;2023-03-14T07:19:03;6.25;;;2.40;;
52031;SDS011;38044;45.148;39.604;2023-03-14T07:21:29;6.15;;;3.00;;
52031;SDS011;38044;45.148;39.604;2023-03-14T07:23:56;8.68;;;3.53;;
52031;SDS011;38044;45.148;39.604;2023-03-14T07:26:22;3.45;;;2.40;;
52031;SDS011;38044;45.148;39.604;2023-03-14T07:28:48;5.95;;;3.10;;
52031;SDS011;38044;45.148;39.604;2023-03-14T07:31:14;4.03;;;2.72;;
52031;SDS011;38044;45.148;39.604;2023-03-14T07:33:39;3.60;;;2.45;;
52031;SDS011;38044;45.148;39.604;2023-03-14T07:36:05;6.20;;;3.45;;
52031;SDS011;38044;45.148;39.604;2023-03-14T07:38:31;4.60;;;2.72;;
52031;SDS011;38044;45.148;39.604;2023-03-14T07:40:58;3.72;;;2.47;;
52031;SDS011;38044;45.148;39.604;2023-03-14T07:43:27;3.55;;;2.92;;
52031;SDS011;38044;45.148;39.604;2023-03-14T07:45:53;4.63;;;3.22;;
52031;SDS011;38044;45.148;39.604;2023-03-14T07:48:19;5.50;;;2.75;;
52031;SDS011;38044;45.148;39.604;2023-03-14T07:50:49;4.47;;;3.15;;
52031;SDS011;38044;45.148;39.604;2023-03-14T07:53:16;4.05;;;3.05;;
52031;SDS011;38044;45.148;39.604;2023-03-14T07:55:42;5.38;;;3.05;;
52031;SDS011;38044;45.148;39.604;2023-03-14T07:58:07;4.68;;;2.90;;
52031;SDS011;38044;45.148;39.604;2023-03-14T08:00:33;3.60;;;2.92;;
52031;SDS011;38044;45.148;39.604;2023-03-14T08:02:59;4.03;;;3.00;;
52031;SDS011;38044;45.148;39.604;2023-03-14T08:05:24;4.32;;;2.92;;
52031;SDS011;38044;45.148;39.604;2023-03-14T08:07:51;3.50;;;2.60;;
52031;SDS011;38044;45.148;39.604;2023-03-14T08:10:17;4.93;;;2.60;;
52031;SDS011;38044;45.148;39.604;2023-03-14T08:12:47;9.82;;;2.95;;
52031;SDS011;38044;45.148;39.604;2023-03-14T08:15:19;4.28;;;2.30;;
52031;SDS011;38044;45.148;39.604;2023-03-14T08:17:45;4.53;;;2.97;;
52031;SDS011;38044;45.148;39.604;2023-03-14T08:20:16;5.20;;;2.65;;
52031;SDS011;38044;45.148;39.604;2023-03-14T08:22:46;4.40;;;2.70;;
52031;SDS011;38044;45.148;39.604;2023-03-14T08:25:12;5.25;;;2.97;;
52031;SDS011;38044;45.148;39.604;2023-03-14T08:27:38;5.47;;;3.03;;
52031;SDS011;38044;45.148;39.604;2023-03-14T08:30:06;5.45;;;3.92;;
52031;SDS011;38044;45.148;39.604;2023-03-14T08:32:34;4.68;;;3.47;;
52031;SDS011;38044;45.148;39.604;2023-03-14T08:35:00;4.97;;;3.38;;
52031;SDS011;38044;45.148;39.604;2023-03-14T08:37:26;6.40;;;3.10;;
52031;SDS011;38044;45.148;39.604;2023-03-14T08:39:52;6.50;;;3.40;;
52031;SDS011;38044;45.148;39.604;2023-03-14T08:42:18;6.05;;;2.72;;
52031;SDS011;38044;45.148;39.604;2023-03-14T08:44:44;3.60;;;2.58;;
52031;SDS011;38044;45.148;39.604;2023-03-14T08:47:10;4.38;;;2.67;;
52031;SDS011;38044;45.148;39.604;2023-03-14T08:49:36;4.45;;;3.42;;
52031;SDS011;38044;45.148;39.604;2023-03-14T08:52:05;3.85;;;2.63;;
52031;SDS011;38044;45.148;39.604;2023-03-14T08:54:31;4.28;;;3.20;;
52031;SDS011;38044;45.148;39.604;2023-03-14T08:56:57;6.38;;;3.15;;
52031;SDS011;38044;45.148;39.604;2023-03-14T08:59:23;3.53;;;2.22;;
52031;SDS011;38044;45.148;39.604;2023-03-14T09:01:50;3.75;;;2.70;;
52031;SDS011;38044;45.148;39.604;2023-03-14T09:04:16;3.45;;;2.45;;
52031;SDS011;38044;45.148;39.604;2023-03-14T09:06:42;5.55;;;3.03;;
52031;SDS011;38044;45.148;39.604;2023-03-14T09:09:07;6.80;;;2.90;;
52031;SDS011;38044;45.148;39.604;2023-03-14T09:11:33;5.05;;;2.70;;
52031;SDS011;38044;45.148;39.604;2023-03-14T09:13:59;5.15;;;2.38;;
52031;SDS011;38044;45.148;39.604;2023-03-14T09:16:25;5.63;;;3.55;;
52031;SDS011;38044;45.148;39.604;2023-03-14T09:18:51;5.15;;;2.92;;
52031;SDS011;38044;45.148;39.604;2023-03-14T09:21:20;4.65;;;3.03;;
52031;SDS011;38044;45.148;39.604;2023-03-14T09:23:46;2.42;;;2.22;;
52031;SDS011;38044;45.148;39.604;2023-03-14T09:26:12;3.13;;;2.78;;
52031;SDS011;38044;45.148;39.604;2023-03-14T09:28:38;2.92;;;2.10;;
52031;SDS011;38044;45.148;39.604;2023-03-14T09:31:07;3.38;;;2.33;;
52031;SDS011;38044;45.148;39.604;2023-03-14T09:33:35;3.15;;;2.15;;
52031;SDS011;38044;45.148;39.604;2023-03-14T09:36:02;6.45;;;2.42;;
52031;SDS011;38044;45.148;39.604;2023-03-14T09:38:28;5.03;;;2.33;;
52031;SDS011;38044;45.148;39.604;2023-03-14T09:40:54;4.38;;;2.60;;
52031;SDS011;38044;45.148;39.604;2023-03-14T09:43:23;4.63;;;2.47;;
52031;SDS011;38044;45.148;39.604;2023-03-14T09:45:51;4.15;;;2.38;;
52031;SDS011;38044;45.148;39.604;2023-03-14T09:48:22;4.32;;;2.55;;
52031;SDS011;38044;45.148;39.604;2023-03-14T09:50:52;3.90;;;2.20;;
52031;SDS011;38044;45.148;39.604;2023-03-14T09:53:21;3.13;;;2.35;;
52031;SDS011;38044;45.148;39.604;2023-03-14T09:55:52;3.37;;;2.00;;
52031;SDS011;38044;45.148;39.604;2023-03-14T09:58:21;4.07;;;2.13;;
52031;SDS011;38044;45.148;39.604;2023-03-14T10:00:49;2.45;;;1.63;;
52031;SDS011;38044;45.148;39.604;2023-03-14T10:05:51;6.95;;;2.80;;
52031;SDS011;38044;45.148;39.604;2023-03-14T10:08:17;3.92;;;2.10;;
52031;SDS011;38044;45.148;39.604;2023-03-14T10:10:42;3.20;;;1.80;;
52031;SDS011;38044;45.148;39.604;2023-03-14T10:13:16;3.35;;;2.10;;
52031;SDS011;38044;45.148;39.604;2023-03-14T10:16:02;2.42;;;2.00;;
52031;SDS011;38044;45.148;39.604;2023-03-14T10:18:31;5.00;;;3.33;;
52031;SDS011;38044;45.148;39.604;2023-03-14T10:21:04;13.63;;;8.60;;
52031;SDS011;38044;45.148;39.604;2023-03-14T10:23:50;2.85;;;2.17;;
52031;SDS011;38044;45.148;39.604;2023-03-14T10:26:16;3.45;;;2.30;;
52031;SDS011;38044;45.148;39.604;2023-03-14T10:28:45;2.55;;;2.00;;
52031;SDS011;38044;45.148;39.604;2023-03-14T10:31:18;18.95;;;10.13;;
52031;SDS011;38044;45.148;39.604;2023-03-14T10:34:09;11.82;;;7.13;;
52031;SDS011;38044;45.148;39.604;2023-03-14T10:36:41;13.05;;;5.53;;
52031;SDS011;38044;45.148;39.604;2023-03-14T10:42:04;4.03;;;2.75;;
52031;SDS011;38044;45.148;39.604;2023-03-14T10:44:36;9.10;;;5.00;;
52031;SDS011;38044;45.148;39.604;2023-03-14T10:47:04;4.18;;;3.05;;
52031;SDS011;38044;45.148;39.604;2023-03-14T10:49:35;5.15;;;3.30;;
52031;SDS011;38044;45.148;39.604;2023-03-14T10:52:24;4.53;;;2.83;;
52031;SDS011;38044;45.148;39.604;2023-03-14T10:57:40;4.22;;;2.28;;
52031;SDS011;38044;45.148;39.604;2023-03-14T11:00:16;4.88;;;3.90;;
52031;SDS011;38044;45.148;39.604;2023-03-14T11:05:28;30.50;;;20.27;;
52031;SDS011;38044;45.148;39.604;2023-03-14T11:08:06;8.15;;;4.97;;
52031;SDS011;38044;45.148;39.604;2023-03-14T11:10:38;6.05;;;4.13;;
52031;SDS011;38044;45.148;39.604;2023-03-14T11:13:21;3.53;;;2.20;;
52031;SDS011;38044;45.148;39.604;2023-03-14T11:19:13;4.93;;;4.25;;
52031;SDS011;38044;45.148;39.604;2023-03-14T11:21:59;11.20;;;5.10;;
52031;SDS011;38044;45.148;39.604;2023-03-14T11:27:42;16.15;;;5.50;;
52031;SDS011;38044;45.148;39.604;2023-03-14T11:30:42;3.97;;;2.42;;
52031;SDS011;38044;45.148;39.604;2023-03-14T11:33:28;4.10;;;2.50;;
52031;SDS011;38044;45.148;39.604;2023-03-14T11:36:19;4.63;;;2.97;;
52031;SDS011;38044;45.148;39.604;2023-03-14T11:38:53;3.22;;;2.22;;
52031;SDS011;38044;45.148;39.604;2023-03-14T11:41:27;5.57;;;3.47;;
52031;SDS011;38044;45.148;39.604;2023-03-14T11:43:58;4.45;;;2.30;;
52031;SDS011;38044;45.148;39.604;2023-03-14T11:46:32;4.65;;;2.70;;
52031;SDS011;38044;45.148;39.604;2023-03-14T11:49:35;3.70;;;2.60;;
52031;SDS011;38044;45.148;39.604;2023-03-14T11:52:06;6.25;;;3.40;;
52031;SDS011;38044;45.148;39.604;2023-03-14T11:54:48;7.43;;;2.90;;
52031;SDS011;38044;45.148;39.604;2023-03-14T11:57:19;5.60;;;3.50;;
52031;SDS011;38044;45.148;39.604;2023-03-14T12:10:48;6.13;;;4.63;;
52031;SDS011;38044;45.148;39.604;2023-03-14T12:13:17;7.35;;;3.60;;
52031;SDS011;38044;45.148;39.604;2023-03-14T12:15:53;4.95;;;2.53;;
52031;SDS011;38044;45.148;39.604;2023-03-14T12:18:25;4.85;;;3.17;;
52031;SDS011;38044;45.148;39.604;2023-03-14T12:20:54;3.58;;;2.60;;
52031;SDS011;38044;45.148;39.604;2023-03-14T12:23:23;3.33;;;2.60;;
52031;SDS011;38044;45.148;39.604;2023-03-14T12:26:07;3.55;;;2.33;;
52031;SDS011;38044;45.148;39.604;2023-03-14T12:28:36;3.28;;;2.38;;
52031;SDS011;38044;45.148;39.604;2023-03-14T12:42:12;5.53;;;2.45;;
52031;SDS011;38044;45.148;39.604;2023-03-14T12:44:46;4.97;;;2.70;;
52031;SDS011;38044;45.148;39.604;2023-03-14T12:49:46;3.75;;;2.80;;
52031;SDS011;38044;45.148;39.604;2023-03-14T12:52:21;4.20;;;2.75;;
52031;SDS011;38044;45.148;39.604;2023-03-14T12:55:00;4.05;;;3.03;;
52031;SDS011;38044;45.148;39.604;2023-03-14T13:00:20;6.95;;;3.20;;
52031;SDS011;38044;45.148;39.604;2023-03-14T13:02:48;6.78;;;3.28;;
52031;SDS011;38044;45.148;39.604;2023-03-14T13:05:24;3.92;;;2.40;;
52031;SDS011;38044;45.148;39.604;2023-03-14T13:15:40;5.18;;;2.20;;
52031;SDS011;38044;45.148;39.604;2023-03-14T13:18:12;3.22;;;2.53;;
52031;SDS011;38044;45.148;39.604;2023-03-14T13:20:45;4.30;;;2.35;;
52031;SDS011;38044;45.148;39.604;2023-03-14T13:23:26;2.78;;;2.33;;
52031;SDS011;38044;45.148;39.604;2023-03-14T13:25:57;3.35;;;2.30;;
52031;SDS011;38044;45.148;39.604;2023-03-14T13:28:25;3.40;;;2.25;;
52031;SDS011;38044;45.148;39.604;2023-03-14T13:31:00;2.67;;;2.10;;
52031;SDS011;38044;45.148;39.604;2023-03-14T13:33:27;3.67;;;2.38;;
52031;SDS011;38044;45.148;39.604;2023-03-14T13:36:00;4.13;;;2.58;;
52031;SDS011;38044;45.148;39.604;2023-03-14T13:38:29;4.00;;;2.13;;
52031;SDS011;38044;45.148;39.604;2023-03-14T13:40:57;2.13;;;1.75;;
52031;SDS011;38044;45.148;39.604;2023-03-14T13:43:27;3.22;;;2.15;;
52031;SDS011;38044;45.148;39.604;2023-03-14T13:46:01;4.57;;;2.40;;
52031;SDS011;38044;45.148;39.604;2023-03-14T13:48:29;7.67;;;3.03;;
52031;SDS011;38044;45.148;39.604;2023-03-14T13:51:04;2.95;;;2.17;;
52031;SDS011;38044;45.148;39.604;2023-03-14T13:53:32;6.32;;;2.38;;
52031;SDS011;38044;45.148;39.604;2023-03-14T13:56:08;3.90;;;2.25;;
52031;SDS011;38044;45.148;39.604;2023-03-14T13:58:35;3.22;;;2.30;;
52031;SDS011;38044;45.148;39.604;2023-03-14T14:01:10;3.40;;;1.92;;
52031;SDS011;38044;45.148;39.604;2023-03-14T14:03:46;6.47;;;2.20;;
52031;SDS011;38044;45.148;39.604;2023-03-14T14:06:28;2.15;;;1.88;;
52031;SDS011;38044;45.148;39.604;2023-03-14T14:09:03;2.85;;;2.13;;
52031;SDS011;38044;45.148;39.604;2023-03-14T14:11:37;4.20;;;2.13;;
52031;SDS011;38044;45.148;39.604;2023-03-14T14:14:16;3.42;;;2.30;;
52031;SDS011;38044;45.148;39.604;2023-03-14T14:16:46;3.55;;;1.85;;
52031;SDS011;38044;45.148;39.604;2023-03-14T14:19:13;3.40;;;2.35;;
52031;SDS011;38044;45.148;39.604;2023-03-14T14:21:41;2.97;;;2.13;;
52031;SDS011;38044;45.148;39.604;2023-03-14T14:24:09;4.78;;;2.47;;
52031;SDS011;38044;45.148;39.604;2023-03-14T14:26:40;4.35;;;2.20;;
52031;SDS011;38044;45.148;39.604;2023-03-14T14:29:16;2.65;;;2.03;;
52031;SDS011;38044;45.148;39.604;2023-03-14T14:31:59;4.10;;;1.80;;
52031;SDS011;38044;45.148;39.604;2023-03-14T14:34:38;4.80;;;2.20;;
52031;SDS011;38044;45.148;39.604;2023-03-14T14:37:23;4.32;;;2.30;;
52031;SDS011;38044;45.148;39.604;2023-03-14T14:39:52;3.70;;;1.90;;
52031;SDS011;38044;45.148;39.604;2023-03-14T14:42:20;3.20;;;2.08;;
52031;SDS011;38044;45.148;39.604;2023-03-14T14:44:50;3.33;;;2.20;;
52031;SDS011;38044;45.148;39.604;2023-03-14T14:47:21;5.15;;;1.90;;
52031;SDS011;38044;45.148;39.604;2023-03-14T14:49:49;3.67;;;2.15;;
52031;SDS011;38044;45.148;39.604;2023-03-14T14:52:18;2.20;;;1.90;;
52031;SDS011;38044;45.148;39.604;2023-03-14T14:57:23;3.90;;;2.00;;
52031;SDS011;38044;45.148;39.604;2023-03-14T15:00:05;2.60;;;1.83;;
52031;SDS011;38044;45.148;39.604;2023-03-14T15:02:38;3.25;;;2.10;;
52031;SDS011;38044;45.148;39.604;2023-03-14T15:05:18;1.98;;;1.67;;
52031;SDS011;38044;45.148;39.604;2023-03-14T15:07:45;2.92;;;1.98;;
52031;SDS011;38044;45.148;39.604;2023-03-14T15:10:13;2.30;;;2.00;;
52031;SDS011;38044;45.148;39.604;2023-03-14T15:12:41;5.03;;;3.10;;
52031;SDS011;38044;45.148;39.604;2023-03-14T15:15:08;9.38;;;2.85;;
52031;SDS011;38044;45.148;39.604;2023-03-14T15:17:35;4.32;;;2.53;;
52031;SDS011;38044;45.148;39.604;2023-03-14T15:20:02;4.13;;;2.47;;
52031;SDS011;38044;45.148;39.604;2023-03-14T15:22:31;4.18;;;2.50;;
52031;SDS011;38044;45.148;39.604;2023-03-14T15:24:58;4.03;;;2.30;;
52031;SDS011;38044;45.148;39.604;2023-03-14T15:27:23;3.63;;;2.50;;
52031;SDS011;38044;45.148;39.604;2023-03-14T15:29:50;3.38;;;2.30;;
52031;SDS011;38044;45.148;39.604;2023-03-14T15:32:16;2.90;;;2.03;;
52031;SDS011;38044;45.148;39.604;2023-03-14T15:34:43;3.45;;;2.13;;
52031;SDS011;38044;45.148;39.604;2023-03-14T15:37:12;5.38;;;2.45;;
52031;SDS011;38044;45.148;39.604;2023-03-14T15:39:41;4.93;;;2.05;;